Time;durP1;ratioP1;P1;durP2;ratioP2;P2;SDS_P1;SDS_P2;PMS_P1;PMS_P2;Temp;Humidity;BMP_temperature;BMP_pressure;BME280_temperature;BME280_humidity;BME280_pressure;Samples;Min_cycle;Max_cycle;Signal;HPM_P1;HPM_P2
2021/01/17 00:00:21;;;;;;;76.70;34.92;;;;;;;-1.07;98.57;101464.72;5018551;28;20517;-61
2021/01/17 00:02:48;;;;;;;70.97;31.17;;;;;;;-1.02;98.62;101467.22;5022096;28;20068;-61
2021/01/17 00:05:16;;;;;;;71.88;31.10;;;;;;;-1.00;98.40;101455.69;5019702;28;20050;-61
2021/01/17 00:07:42;;;;;;;66.70;31.33;;;;;;;-0.97;98.39;101454.72;5018722;28;20479;-61
2021/01/17 00:10:10;;;;;;;62.50;29.10;;;;;;;-0.99;98.46;101452.13;5016284;28;20410;-61
2021/01/17 00:12:38;;;;;;;70.43;29.70;;;;;;;-0.99;98.39;101448.63;5015630;28;20065;-61
2021/01/17 00:15:06;;;;;;;73.65;31.63;;;;;;;-0.97;98.54;101444.16;5016252;28;20057;-61
2021/01/17 00:17:33;;;;;;;73.70;31.17;;;;;;;-0.96;98.19;101436.16;5019846;28;20428;-61
2021/01/17 00:19:59;;;;;;;72.70;29.98;;;;;;;-0.97;98.26;101455.59;5020423;28;20486;-61
2021/01/17 00:22:25;;;;;;;71.38;32.38;;;;;;;-0.99;98.34;101445.97;5018865;28;20068;-62
2021/01/17 00:24:51;;;;;;;69.70;32.67;;;;;;;-0.96;98.10;101443.25;5019421;28;20037;-61
2021/01/17 00:27:18;;;;;;;73.47;33.25;;;;;;;-1.01;98.14;101463.69;5019835;28;20430;-61
2021/01/17 00:29:44;;;;;;;76.60;30.85;;;;;;;-0.97;98.23;101460.00;5018021;28;20053;-60
2021/01/17 00:32:11;;;;;;;66.30;30.33;;;;;;;-0.92;98.29;101458.09;5019145;28;20161;-62
2021/01/17 00:34:39;;;;;;;66.68;30.83;;;;;;;-0.97;98.44;101458.25;5018448;28;20079;-60
2021/01/17 00:37:05;;;;;;;79.00;32.85;;;;;;;-1.00;98.18;101449.53;5018239;28;20104;-60
2021/01/17 00:39:31;;;;;;;79.22;32.08;;;;;;;-0.95;98.46;101452.91;5018558;28;20573;-61
2021/01/17 00:41:57;;;;;;;78.25;32.88;;;;;;;-0.95;98.39;101452.91;5016327;28;20050;-61
2021/01/17 00:44:23;;;;;;;69.70;29.92;;;;;;;-0.96;98.40;101453.81;5009842;28;20119;-61
2021/01/17 00:46:50;;;;;;;77.03;32.08;;;;;;;-0.97;98.67;101445.03;5014715;28;20065;-61
2021/01/17 00:49:16;;;;;;;72.63;32.85;;;;;;;-0.98;98.48;101442.44;5017818;28;20090;-60
2021/01/17 00:51:45;;;;;;;77.95;32.33;;;;;;;-1.01;98.38;101440.75;5018895;28;20065;-61
2021/01/17 00:54:12;;;;;;;80.78;32.65;;;;;;;-0.97;98.51;101433.56;5014794;28;20061;-61
2021/01/17 00:56:39;;;;;;;73.95;30.60;;;;;;;-0.95;98.47;101437.06;5014533;28;20050;-61
2021/01/17 00:59:05;;;;;;;76.93;30.38;;;;;;;-0.95;98.76;101437.06;5014656;28;20201;-60
2021/01/17 01:01:37;;;;;;;81.45;34.30;;;;;;;-0.97;98.66;101433.56;5015339;28;20565;-61
2021/01/17 01:04:03;;;;;;;81.28;31.48;;;;;;;-0.97;99.26;101438.88;5012781;28;20046;-61
2021/01/17 01:06:29;;;;;;;88.50;33.63;;;;;;;-1.01;98.73;101434.63;5016261;28;20068;-61
2021/01/17 01:08:56;;;;;;;89.28;32.78;;;;;;;-1.00;98.98;101438.97;5015572;28;20457;-60
2021/01/17 01:11:22;;;;;;;81.25;34.15;;;;;;;-0.94;99.01;101436.16;5014377;28;20104;-60
2021/01/17 01:13:48;;;;;;;101.43;32.80;;;;;;;-0.94;98.93;101428.22;5014708;28;20052;-62
2021/01/17 01:16:14;;;;;;;101.88;36.35;;;;;;;-0.95;98.96;101429.13;5014059;28;20050;-61
2021/01/17 01:18:40;;;;;;;85.07;33.03;;;;;;;-0.92;99.20;101436.97;5014799;28;20058;-61
2021/01/17 01:21:06;;;;;;;91.88;34.72;;;;;;;-0.95;99.15;101429.13;5010652;28;20054;-61
2021/01/17 01:23:32;;;;;;;97.45;36.92;;;;;;;-0.94;99.48;101430.88;5006178;28;20076;-61
2021/01/17 01:25:59;;;;;;;91.30;35.88;;;;;;;-0.92;99.63;101429.03;5001411;28;20057;-60
2021/01/17 01:28:26;;;;;;;89.35;32.35;;;;;;;-0.95;99.63;101434.41;4996885;28;20391;-61
2021/01/17 01:30:53;;;;;;;89.28;34.10;;;;;;;-0.94;99.71;101433.50;4997616;28;20062;-60
2021/01/17 01:35:50;;;;;;;95.28;34.50;;;;;;;-0.93;99.72;101433.47;4946202;22;531848;-62
2021/01/17 01:38:16;;;;;;;94.32;34.45;;;;;;;-0.89;99.88;101436.84;5016886;28;20052;-61
2021/01/17 01:40:51;;;;;;;89.35;32.33;;;;;;;-0.90;99.85;101428.06;5023223;28;20053;-61
2021/01/17 01:43:23;;;;;;;89.88;34.15;;;;;;;-0.83;99.96;101420.81;5034739;28;20045;-61
2021/01/17 01:45:49;;;;;;;78.80;32.15;;;;;;;-0.90;99.89;101427.19;5027453;28;20399;-61
2021/01/17 01:48:16;;;;;;;89.32;33.78;;;;;;;-0.87;99.95;101419.16;5029723;28;20053;-61
2021/01/17 01:50:42;;;;;;;79.18;30.40;;;;;;;-0.88;99.87;101414.81;5030712;28;20080;-61
2021/01/17 01:53:08;;;;;;;87.35;33.05;;;;;;;-0.91;99.85;101428.13;5030947;28;20049;-61
2021/01/17 01:55:34;;;;;;;90.03;34.63;;;;;;;-0.91;100.00;101417.56;5030114;28;20052;-60
2021/01/17 01:58:04;;;;;;;88.47;31.77;;;;;;;-0.87;100.00;101416.53;5030932;28;20605;-61
2021/01/17 02:00:31;;;;;;;81.05;33.75;;;;;;;-0.88;100.00;101417.47;5032974;28;20053;-60
2021/01/17 02:02:57;;;;;;;84.90;29.85;;;;;;;-0.84;100.00;101407.63;5032671;28;20072;-60
2021/01/17 02:05:23;;;;;;;89.88;31.85;;;;;;;-0.86;100.00;101406.84;5028433;28;20049;-61
2021/01/17 02:08:23;;;;;;;88.18;33.22;;;;;;;-0.87;100.00;101403.31;5028802;28;20061;-60
2021/01/17 02:10:49;;;;;;;84.40;33.03;;;;;;;-0.85;100.00;101401.50;5042082;28;20494;-60
2021/01/17 02:13:19;;;;;;;86.25;31.35;;;;;;;-0.85;100.00;101395.31;5042005;28;20387;-61
2021/01/17 02:15:48;;;;;;;85.80;32.42;;;;;;;-0.84;100.00;101392.66;5042246;28;20103;-61
2021/01/17 02:18:16;;;;;;;80.50;32.53;;;;;;;-0.83;100.00;101394.38;5041937;28;20548;-61
2021/01/17 02:20:43;;;;;;;84.95;33.60;;;;;;;-0.82;100.00;101387.31;5042098;28;20044;-61
2021/01/17 02:23:15;;;;;;;88.75;32.05;;;;;;;-0.77;100.00;101385.38;5040882;28;20410;-61
2021/01/17 02:25:43;;;;;;;80.40;31.00;;;;;;;-0.76;100.00;101384.47;5040494;28;20045;-61
2021/01/17 02:28:11;;;;;;;79.85;32.58;;;;;;;-0.79;100.00;101385.44;5041323;28;20049;-61
2021/01/17 02:30:45;;;;;;;81.40;31.13;;;;;;;-0.74;100.00;101388.81;5039707;28;20045;-61
2021/01/17 02:33:13;;;;;;;83.53;31.95;;;;;;;-0.74;100.00;101383.53;5042575;28;20053;-61
2021/01/17 02:35:40;;;;;;;82.90;32.92;;;;;;;-0.74;100.00;101378.22;5039730;28;20458;-61
2021/01/17 02:38:40;;;;;;;83.75;33.58;;;;;;;-0.76;100.00;101380.03;5041759;28;20053;-61
2021/01/17 02:41:14;;;;;;;92.63;34.80;;;;;;;-0.81;100.00;101376.72;5043011;28;20045;-62
2021/01/17 02:43:41;;;;;;;95.18;33.67;;;;;;;-0.80;100.00;101383.69;5040948;28;20130;-61
2021/01/17 02:46:07;;;;;;;84.82;32.75;;;;;;;-0.72;100.00;101380.81;5036443;28;20057;-61
2021/01/17 02:49:14;;;;;;;81.00;32.50;;;;;;;-0.76;100.00;101380.03;5052847;23;20063;-61
2021/01/17 02:51:40;;;;;;;82.43;32.42;;;;;;;-0.75;100.00;101379.13;4977990;28;20058;-61
2021/01/17 02:54:09;;;;;;;88.78;34.20;;;;;;;-0.74;100.00;101391.44;4976990;28;20614;-61
2021/01/17 02:56:42;;;;;;;83.05;31.88;;;;;;;-0.65;100.00;101392.03;4981063;28;20046;-61
2021/01/17 02:59:13;;;;;;;83.20;31.30;;;;;;;-0.67;100.00;101391.25;4980486;28;20109;-61
2021/01/17 03:01:39;;;;;;;84.55;32.28;;;;;;;-0.73;100.00;101390.50;4980444;28;20045;-61
2021/01/17 03:04:14;;;;;;;87.57;32.40;;;;;;;-0.72;100.00;101386.97;4978775;28;20062;-61
2021/01/17 03:06:41;;;;;;;81.00;31.10;;;;;;;-0.59;100.00;101391.81;4980360;28;20531;-62
2021/01/17 03:09:08;;;;;;;82.35;31.48;;;;;;;-0.65;100.00;101390.25;4979788;28;20673;-62
2021/01/17 03:11:34;;;;;;;86.97;32.80;;;;;;;-0.68;100.00;101393.00;4981488;28;20057;-61
2021/01/17 03:14:01;;;;;;;89.75;32.03;;;;;;;-0.69;100.00;101398.34;4979922;28;20047;-62
2021/01/17 03:16:27;;;;;;;88.43;33.53;;;;;;;-0.72;100.00;101397.53;4979644;28;20050;-61
2021/01/17 03:18:53;;;;;;;80.68;31.40;;;;;;;-0.68;100.00;101393.00;4980747;28;20515;-62
2021/01/17 03:21:19;;;;;;;81.47;30.67;;;;;;;-0.62;100.00;101381.38;4980217;28;20046;-62
2021/01/17 03:23:44;;;;;;;87.82;32.50;;;;;;;-0.66;100.00;101377.09;4978486;28;20078;-61
2021/01/17 03:26:10;;;;;;;81.60;29.17;;;;;;;-0.67;100.00;101381.53;4978829;28;20058;-61
2021/01/17 03:28:36;;;;;;;79.03;30.02;;;;;;;-0.57;100.00;101382.09;4981479;28;20480;-62
2021/01/17 03:31:03;;;;;;;75.53;29.20;;;;;;;-0.63;100.00;101390.19;4977888;28;20047;-61
2021/01/17 03:33:29;;;;;;;79.38;31.10;;;;;;;-0.65;100.00;101387.59;4979844;28;20046;-61
2021/01/17 03:38:25;;;;;;;74.10;28.95;;;;;;;-0.66;100.00;101391.19;4977375;23;20494;-61
2021/01/17 03:40:51;;;;;;;71.68;29.05;;;;;;;-0.64;100.00;101391.13;5040068;28;20102;-61
2021/01/17 03:43:17;;;;;;;72.85;28.65;;;;;;;-0.65;100.00;101389.41;5038490;28;20049;-60
2021/01/17 03:45:43;;;;;;;71.40;28.08;;;;;;;-0.63;100.00;101391.09;5038481;28;20096;-61
2021/01/17 03:48:10;;;;;;;71.13;28.70;;;;;;;-0.64;100.00;101385.84;5036576;28;20053;-60
2021/01/17 03:50:36;;;;;;;70.30;28.65;;;;;;;-0.66;100.00;101385.91;5039980;28;20049;-61
2021/01/17 03:53:02;;;;;;;74.57;29.13;;;;;;;-0.63;100.00;101390.19;5038055;28;20099;-61
2021/01/17 03:55:28;;;;;;;76.55;30.63;;;;;;;-0.66;100.00;101390.31;5040106;28;20049;-61
2021/01/17 03:57:54;;;;;;;74.95;27.80;;;;;;;-0.62;100.00;101386.66;5039740;28;20084;-62
2021/01/17 04:00:21;;;;;;;75.40;29.33;;;;;;;-0.63;100.00;101384.91;5039176;28;20080;-61
2021/01/17 04:02:46;;;;;;;71.10;29.77;;;;;;;-0.62;100.00;101382.25;5038681;28;20878;-61
2021/01/17 04:05:13;;;;;;;71.20;28.25;;;;;;;-0.63;100.00;101380.50;5038893;28;20107;-62
2021/01/17 04:07:39;;;;;;;67.13;26.75;;;;;;;-0.62;100.00;101381.38;5037767;28;20060;-61
2021/01/17 04:10:06;;;;;;;69.80;27.27;;;;;;;-0.62;100.00;101374.31;5038539;28;20068;-60
2021/01/17 04:12:32;;;;;;;65.47;26.73;;;;;;;-0.55;100.00;101378.44;5035491;28;20082;-61
2021/01/17 04:14:58;;;;;;;71.20;27.92;;;;;;;-0.60;100.00;101385.69;5030859;28;20076;-61
2021/01/17 04:17:24;;;;;;;64.85;28.75;;;;;;;-0.63;100.00;101375.22;5033312;28;20049;-60
2021/01/17 04:19:50;;;;;;;76.95;28.35;;;;;;;-0.59;100.00;101381.25;5035444;28;20061;-60
2021/01/17 04:22:17;;;;;;;67.40;27.30;;;;;;;-0.59;100.00;101386.53;5034191;28;20131;-61
2021/01/17 04:24:43;;;;;;;71.78;28.58;;;;;;;-0.56;100.00;101386.44;5033083;28;20052;-61
2021/01/17 04:27:09;;;;;;;66.10;28.08;;;;;;;-0.56;100.00;101381.16;5034739;28;20053;-60
2021/01/17 04:29:35;;;;;;;71.35;28.67;;;;;;;-0.55;100.00;101389.03;5035983;28;20060;-61
2021/01/17 04:32:01;;;;;;;66.47;28.08;;;;;;;-0.55;100.00;101381.09;5033451;28;20124;-59
2021/01/17 04:34:27;;;;;;;66.68;27.25;;;;;;;-0.51;100.00;101395.09;5032347;28;20098;-60
2021/01/17 04:36:52;;;;;;;73.00;29.58;;;;;;;-0.55;100.00;101382.88;5033840;28;20151;-60
2021/01/17 04:39:19;;;;;;;74.72;28.23;;;;;;;-0.56;100.00;101375.84;5032587;28;20587;-61
2021/01/17 04:41:46;;;;;;;67.22;27.90;;;;;;;-0.49;100.00;101382.66;5030834;28;20110;-61
2021/01/17 04:44:13;;;;;;;69.85;29.00;;;;;;;-0.51;100.00;101384.50;5022096;28;20057;-61
2021/01/17 04:46:40;;;;;;;68.63;28.98;;;;;;;-0.53;100.00;101378.41;5014570;28;20056;-60
2021/01/17 04:49:09;;;;;;;70.18;26.42;;;;;;;-0.49;100.00;101387.09;5060056;23;20091;-59
2021/01/17 04:51:36;;;;;;;73.45;27.35;;;;;;;-0.55;100.00;101377.59;5025589;28;20478;-60
2021/01/17 04:54:03;;;;;;;76.70;28.65;;;;;;;-0.50;100.00;101388.91;5020919;28;20060;-60
2021/01/17 04:56:33;;;;;;;63.95;26.67;;;;;;;-0.52;100.00;101382.78;5028762;28;20060;-60
2021/01/17 04:59:10;;;;;;;71.78;27.90;;;;;;;-0.52;100.00;101385.41;5025378;28;20053;-60
2021/01/17 05:04:26;;;;;;;70.55;27.08;;;;;;;-0.50;100.00;101374.78;5023775;22;20144;-60
2021/01/17 05:06:57;;;;;;;72.15;26.20;;;;;;;-0.44;100.00;101375.47;5008220;28;20662;-60
2021/01/17 05:09:31;;;;;;;73.97;28.90;;;;;;;-0.43;100.00;101386.91;5011833;28;20438;-61
2021/01/17 05:12:08;;;;;;;68.20;26.60;;;;;;;-0.47;100.00;101378.22;5019344;28;20061;-60
2021/01/17 05:14:41;;;;;;;68.97;26.88;;;;;;;-0.46;100.00;101371.97;5016800;28;20056;-61
2021/01/17 05:17:07;;;;;;;67.90;26.77;;;;;;;-0.47;100.00;101379.97;5021758;28;20071;-60
2021/01/17 05:19:37;;;;;;;67.50;26.88;;;;;;;-0.45;100.00;101373.72;5023375;28;20068;-61
2021/01/17 05:22:04;;;;;;;69.30;27.65;;;;;;;-0.46;100.00;101376.41;5022626;28;20053;-61
2021/01/17 05:24:31;;;;;;;74.32;28.23;;;;;;;-0.39;100.00;101384.09;5022175;28;20418;-62
2021/01/17 05:26:58;;;;;;;77.72;28.17;;;;;;;-0.44;100.00;101375.47;5022710;28;20569;-61
2021/01/17 05:29:27;;;;;;;81.93;28.80;;;;;;;-0.40;100.00;101377.09;5021347;28;20042;-60
2021/01/17 05:31:55;;;;;;;74.30;27.65;;;;;;;-0.31;100.00;101375.03;5022507;28;20049;-61
2021/01/17 05:34:21;;;;;;;69.87;30.20;;;;;;;-0.34;100.00;101377.78;5020869;28;20087;-61
2021/01/17 05:36:47;;;;;;;68.97;26.90;;;;;;;-0.30;100.00;101393.47;5023560;28;20457;-60
2021/01/17 05:39:14;;;;;;;73.35;28.05;;;;;;;-0.36;100.00;101383.97;5022692;28;20050;-62
2021/01/17 05:41:39;;;;;;;75.63;27.05;;;;;;;-0.33;100.00;101385.66;5022432;28;20423;-62
2021/01/17 05:44:06;;;;;;;71.38;30.02;;;;;;;-0.36;100.00;101389.25;5019813;28;20049;-61
2021/01/17 05:46:32;;;;;;;71.43;27.77;;;;;;;-0.33;100.00;101382.16;5021020;28;20513;-62
2021/01/17 05:49:11;;;;;;;80.78;29.70;;;;;;;-0.38;100.00;101383.19;5022440;28;20049;-62
2021/01/17 05:51:37;;;;;;;69.32;27.83;;;;;;;-0.36;100.00;101388.41;5019960;28;20042;-61
2021/01/17 05:54:08;;;;;;;77.38;27.58;;;;;;;-0.37;100.00;101386.69;5020111;28;20418;-61
2021/01/17 05:56:36;;;;;;;76.25;27.75;;;;;;;-0.34;100.00;101389.22;5022935;28;20058;-61
2021/01/17 05:59:02;;;;;;;79.38;29.60;;;;;;;-0.33;100.00;101398.88;5021722;28;20133;-61
2021/01/17 06:01:33;;;;;;;85.18;31.10;;;;;;;-0.32;100.00;101397.09;5021723;28;20056;-61
2021/01/17 06:04:09;;;;;;;77.72;28.90;;;;;;;-0.28;100.00;101398.72;5021648;28;20136;-61
2021/01/17 06:06:36;;;;;;;85.10;28.23;;;;;;;-0.32;100.00;101399.72;5021623;28;20056;-61
2021/01/17 06:09:03;;;;;;;75.13;28.45;;;;;;;-0.24;100.00;101397.69;5020187;28;20054;-61
2021/01/17 06:11:29;;;;;;;86.10;29.38;;;;;;;-0.26;100.00;101403.03;5021339;28;20474;-62
2021/01/17 06:13:57;;;;;;;69.63;27.30;;;;;;;-0.25;100.00;101409.19;5020965;28;22307;-61
2021/01/17 06:16:25;;;;;;;72.72;27.98;;;;;;;-0.23;100.00;101399.44;5021762;28;20589;-61
2021/01/17 06:18:57;;;;;;;75.53;27.07;;;;;;;-0.25;100.00;101394.19;5022191;28;20399;-61
2021/01/17 06:21:24;;;;;;;85.88;28.92;;;;;;;-0.23;100.00;101410.03;5021856;28;20046;-62
2021/01/17 06:23:55;;;;;;;89.38;29.17;;;;;;;-0.24;100.00;101413.56;5020722;28;20057;-61
2021/01/17 06:26:27;;;;;;;78.85;27.52;;;;;;;-0.19;100.00;101414.28;5020452;28;20457;-63
2021/01/17 06:28:53;;;;;;;80.60;28.13;;;;;;;-0.14;100.00;101422.91;5020991;28;20137;-62
2021/01/17 06:31:27;;;;;;;80.40;29.02;;;;;;;-0.18;100.00;101418.66;5019784;28;20105;-62
2021/01/17 06:33:53;;;;;;;79.78;28.58;;;;;;;-0.16;100.00;101427.41;5021267;28;23581;-62
2021/01/17 06:36:19;;;;;;;77.85;26.67;;;;;;;-0.14;100.00;101430.00;5019583;28;20053;-62
2021/01/17 06:38:45;;;;;;;74.05;28.52;;;;;;;-0.11;100.00;101436.03;5020541;28;20049;-62
2021/01/17 06:41:12;;;;;;;81.28;28.27;;;;;;;-0.13;100.00;101437.88;5018411;28;20396;-62
2021/01/17 06:43:43;;;;;;;79.13;28.50;;;;;;;-0.06;100.00;101439.41;5016214;28;20053;-62
2021/01/17 06:46:10;;;;;;;84.93;28.95;;;;;;;-0.04;100.00;101431.41;5012711;28;20119;-61
2021/01/17 06:48:36;;;;;;;73.80;27.13;;;;;;;-0.04;100.00;101442.84;5018916;28;20049;-61
2021/01/17 06:51:21;;;;;;;72.35;26.90;;;;;;;-0.02;100.00;101441.00;5019195;28;20052;-61
2021/01/17 06:53:54;;;;;;;84.90;26.90;;;;;;;0.02;100.00;101456.81;5017284;28;20053;-61
2021/01/17 06:56:20;;;;;;;98.38;29.65;;;;;;;-0.06;100.00;101444.69;5017097;28;20057;-61
2021/01/17 06:58:50;;;;;;;87.68;29.80;;;;;;;-0.04;100.00;101457.88;5016643;28;20086;-61
2021/01/17 07:01:15;;;;;;;;;;;;;;;0.01;100.00;101452.41;5019594;28;20053;-61
2021/01/17 07:03:52;;;;;;;90.20;29.45;;;;;;;-0.04;100.00;101448.16;5016045;28;20385;-61
2021/01/17 07:06:29;;;;;;;82.72;27.85;;;;;;;-0.08;100.00;101451.81;5017959;28;20426;-61
2021/01/17 07:09:00;;;;;;;85.57;28.75;;;;;;;-0.04;100.00;101450.78;5016876;28;20087;-61
2021/01/17 07:11:34;;;;;;;84.38;28.33;;;;;;;0.02;100.00;101462.09;5021411;28;20042;-61
2021/01/17 07:14:06;;;;;;;95.00;30.88;;;;;;;-0.01;100.00;101466.56;5017835;28;20062;-61
2021/01/17 07:16:33;;;;;;;106.72;30.35;;;;;;;-0.01;100.00;101468.34;5020175;28;20085;-61
2021/01/17 07:19:03;;;;;;;91.28;29.67;;;;;;;0.04;100.00;101462.88;5020887;28;20053;-61
2021/01/17 07:21:41;;;;;;;98.70;30.27;;;;;;;-0.01;100.00;101471.00;5020760;28;20042;-61
2021/01/17 07:24:09;;;;;;;98.55;31.13;;;;;;;-0.02;100.00;101474.56;5018810;28;20104;-61
2021/01/17 07:26:53;;;;;;;96.20;31.55;;;;;;;-0.01;100.00;101469.22;5019527;28;20114;-61
2021/01/17 07:29:26;;;;;;;89.28;30.58;;;;;;;0.05;100.00;101483.16;5020832;28;20053;-61
2021/01/17 07:31:55;;;;;;;84.80;28.83;;;;;;;0.04;100.00;101486.72;5020183;28;20049;-61
2021/01/17 07:34:21;;;;;;;92.38;29.35;;;;;;;0.09;100.00;101487.41;5018466;28;20046;-61
2021/01/17 07:36:49;;;;;;;95.03;31.17;;;;;;;0.08;100.00;101498.94;5020902;28;20053;-61
2021/01/17 07:39:21;;;;;;;83.53;27.92;;;;;;;0.15;100.00;101500.44;5019787;28;20057;-61
2021/01/17 07:41:49;;;;;;;116.78;33.17;;;;;;;0.15;100.00;101500.44;5010539;28;20061;-62
2021/01/17 07:44:17;;;;;;;96.05;31.27;;;;;;;0.11;100.00;101512.06;5009041;28;20461;-61
2021/01/17 07:46:43;;;;;;;90.43;30.77;;;;;;;0.10;100.00;101500.59;5006727;28;20041;-61
2021/01/17 07:49:12;;;;;;;112.43;31.60;;;;;;;0.16;100.00;101515.38;5007438;28;20084;-61
2021/01/17 07:51:38;;;;;;;97.73;29.17;;;;;;;0.17;100.00;101503.91;5005802;28;20507;-62
2021/01/17 07:54:11;;;;;;;99.50;32.85;;;;;;;0.14;100.00;101511.94;5006645;28;20053;-61
2021/01/17 07:56:38;;;;;;;105.72;31.75;;;;;;;0.14;100.00;101509.31;5008514;28;20053;-61
2021/01/17 07:59:06;;;;;;;96.60;32.47;;;;;;;0.16;100.00;101518.03;5007269;28;20045;-61
2021/01/17 08:01:46;;;;;;;104.00;31.40;;;;;;;0.20;100.00;101524.97;5005692;28;20521;-61
2021/01/17 08:04:25;;;;;;;91.50;31.42;;;;;;;0.26;100.00;101519.44;5006137;28;20084;-61
2021/01/17 08:06:54;;;;;;;108.30;32.28;;;;;;;0.28;100.00;101528.22;5008510;28;20057;-60
2021/01/17 08:09:49;;;;;;;95.05;30.38;;;;;;;0.31;100.00;101532.53;5008117;28;20054;-61
2021/01/17 08:12:38;;;;;;;98.85;30.98;;;;;;;0.32;100.00;101544.84;5007281;28;20549;-60
2021/01/17 08:15:15;;;;;;;106.63;31.60;;;;;;;0.33;100.00;101544.78;5005959;28;20607;-61
2021/01/17 08:17:42;;;;;;;98.78;30.73;;;;;;;0.33;100.00;101543.94;5005340;28;20506;-61
2021/01/17 08:20:08;;;;;;;89.85;31.30;;;;;;;0.40;100.00;101544.56;5009713;28;20057;-61
2021/01/17 08:22:41;;;;;;;109.40;32.35;;;;;;;0.49;100.00;101557.53;5005890;28;20418;-61
2021/01/17 08:25:09;;;;;;;89.70;30.42;;;;;;;0.53;100.00;101567.09;5008893;28;20099;-61
2021/01/17 08:27:36;;;;;;;102.55;32.08;;;;;;;0.57;100.00;101566.03;5012762;28;20061;-62
2021/01/17 08:30:17;;;;;;;100.75;30.20;;;;;;;0.54;100.00;101567.94;5006774;28;20061;-61
2021/01/17 08:32:45;;;;;;;111.88;33.83;;;;;;;0.52;100.00;101583.91;5010070;28;20922;-62
2021/01/17 08:35:36;;;;;;;104.53;34.17;;;;;;;0.57;100.00;101571.34;5009294;28;20062;-61
2021/01/17 08:38:20;;;;;;;110.03;31.98;;;;;;;0.75;100.00;101579.56;5005937;28;20049;-62
2021/01/17 08:40:49;;;;;;;115.45;33.78;;;;;;;0.72;100.00;101584.97;5010568;28;20054;-61
2021/01/17 08:43:16;;;;;;;100.95;33.08;;;;;;;0.75;100.00;101580.44;5020560;28;20038;-62
2021/01/17 08:45:44;;;;;;;102.15;30.90;;;;;;;0.80;100.00;101589.06;5018726;28;20065;-61
2021/01/17 08:48:28;;;;;;;106.13;32.72;;;;;;;0.81;100.00;101589.94;5019407;28;20045;-61
2021/01/17 08:50:56;;;;;;;94.60;31.15;;;;;;;0.87;100.00;101589.72;5021059;28;20053;-61
2021/01/17 08:53:32;;;;;;;95.07;30.95;;;;;;;0.89;100.00;101593.19;5023854;28;20469;-61
2021/01/17 08:56:03;;;;;;;94.55;31.58;;;;;;;0.87;100.00;101593.22;5022559;28;20049;-61
2021/01/17 08:58:44;;;;;;;100.93;33.22;;;;;;;0.94;100.00;101596.50;5021758;28;20042;-61
2021/01/17 09:01:11;;;;;;;99.63;31.55;;;;;;;0.96;100.00;101605.28;5023295;28;20053;-61
2021/01/17 09:03:47;;;;;;;88.50;30.35;;;;;;;0.99;100.00;101606.97;5023241;28;20042;-60
2021/01/17 09:06:24;;;;;;;98.75;31.77;;;;;;;1.07;100.00;101604.03;5021932;28;20061;-62
2021/01/17 09:09:00;;;;;;;101.05;31.50;;;;;;;1.04;100.00;101611.16;5023608;28;20046;-62
2021/01/17 09:11:37;;;;;;;104.55;32.20;;;;;;;1.14;100.00;101602.88;5024167;28;20045;-62
2021/01/17 09:14:15;;;;;;;85.60;30.88;;;;;;;1.18;100.00;101615.13;5020082;28;20046;-62
2021/01/17 09:16:46;;;;;;;99.10;32.60;;;;;;;1.17;100.00;101621.31;5022011;28;20065;-61
2021/01/17 09:19:13;;;;;;;88.20;30.02;;;;;;;1.20;100.00;101629.16;5022361;28;20070;-62
2021/01/17 09:21:39;;;;;;;76.93;28.30;;;;;;;1.31;100.00;101632.28;5022094;28;20083;-62
2021/01/17 09:24:08;;;;;;;82.07;28.83;;;;;;;1.37;100.00;101625.88;5021265;28;20049;-62
2021/01/17 09:26:34;;;;;;;86.10;28.10;;;;;;;1.31;100.00;101642.91;5022771;28;20441;-62
2021/01/17 09:29:00;;;;;;;77.68;28.88;;;;;;;1.33;100.00;101645.50;5022490;28;20362;-61
2021/01/17 09:31:28;;;;;;;71.80;27.92;;;;;;;1.32;100.00;101647.25;5020998;28;20057;-62
2021/01/17 09:33:54;;;;;;;85.05;30.48;;;;;;;1.43;100.00;101661.91;5019610;28;21608;-61
2021/01/17 09:36:22;;;;;;;78.05;27.40;;;;;;;1.45;100.00;101662.75;5020481;28;20065;-62
2021/01/17 09:38:48;;;;;;;72.22;26.67;;;;;;;1.54;100.00;101660.59;5020410;28;20053;-62
2021/01/17 09:41:22;;;;;;;75.20;27.70;;;;;;;1.53;100.00;101664.19;5021342;28;20141;-61
2021/01/17 09:43:50;;;;;;;84.93;28.15;;;;;;;1.44;100.00;101659.19;5017947;28;20041;-62
2021/01/17 09:46:20;;;;;;;78.03;28.98;;;;;;;1.56;100.00;101660.53;5020313;28;20071;-61
2021/01/17 09:48:53;;;;;;;;;;;;;;;1.54;100.00;101657.94;5018230;28;20053;-61
2021/01/17 09:51:22;;;;;;;86.13;29.63;;;;;;;1.64;100.00;101670.88;5021272;28;19973;-61
2021/01/17 09:53:47;;;;;;;89.60;30.55;;;;;;;1.68;100.00;101672.44;5019867;28;20053;-61
2021/01/17 09:56:13;;;;;;;83.00;29.60;;;;;;;1.73;100.00;101681.13;5022296;28;20537;-61
2021/01/17 09:58:39;;;;;;;92.63;30.58;;;;;;;1.80;100.00;101681.75;5021852;28;20490;-61
2021/01/17 10:01:06;;;;;;;89.13;29.70;;;;;;;1.94;100.00;101690.03;5021968;28;21063;-61
2021/01/17 10:03:34;;;;;;;75.35;28.10;;;;;;;2.00;100.00;101689.78;5019554;28;20045;-61
2021/01/17 10:05:59;;;;;;;73.95;28.90;;;;;;;2.08;100.00;101692.16;5019055;28;20054;-61
2021/01/17 10:08:27;;;;;;;82.70;28.33;;;;;;;2.12;100.00;101693.78;5020028;28;20137;-62
2021/01/17 10:10:53;;;;;;;97.28;30.52;;;;;;;2.18;100.00;101689.97;5011225;28;20407;-61
2021/01/17 10:13:19;;;;;;;78.32;27.08;;;;;;;2.26;100.00;101698.53;4965089;28;20152;-61
2021/01/17 10:15:47;;;;;;;74.93;27.42;;;;;;;2.25;100.00;101694.13;5017279;28;20053;-61
2021/01/17 10:18:14;;;;;;;84.53;26.90;;;;;;;2.30;100.00;101702.78;5016498;28;20054;-61
2021/01/17 10:23:08;;;;;;;72.15;25.30;;;;;;;2.53;100.00;101693.88;5065788;22;20393;-61
2021/01/17 10:25:35;;;;;;;73.35;26.00;;;;;;;2.53;100.00;101699.19;5055974;28;20068;-61
2021/01/17 10:28:03;;;;;;;76.60;24.55;;;;;;;2.62;100.00;101703.25;5050082;28;20103;-61
2021/01/17 10:30:30;;;;;;;72.57;24.85;;;;;;;2.69;100.00;101706.50;4977629;28;20057;-61
2021/01/17 10:33:02;;;;;;;71.03;24.20;;;;;;;2.66;100.00;101704.00;4982484;28;20366;-62
2021/01/17 10:35:30;;;;;;;72.63;23.55;;;;;;;2.63;100.00;101704.97;4976351;28;20938;-61
2021/01/17 10:37:57;;;;;;;71.72;24.10;;;;;;;2.74;100.00;101710.72;4979146;28;20080;-61
2021/01/17 10:40:26;;;;;;;62.58;22.92;;;;;;;2.61;100.00;101713.00;4964344;28;20534;-62
2021/01/17 10:42:54;;;;;;;66.53;22.27;;;;;;;2.60;100.00;101719.25;4958436;28;20143;-62
2021/01/17 10:45:21;;;;;;;58.15;22.15;;;;;;;2.71;100.00;101720.59;4959691;28;20180;-62
2021/01/17 10:47:55;;;;;;;59.60;22.17;;;;;;;2.99;100.00;101728.28;4957806;28;20053;-62
2021/01/17 10:50:23;;;;;;;71.22;23.85;;;;;;;3.13;100.00;101740.97;4957427;28;20048;-62
2021/01/17 10:53:02;;;;;;;59.03;23.45;;;;;;;3.09;100.00;101740.25;4963314;28;20158;-62
2021/01/17 10:55:34;;;;;;;59.70;20.45;;;;;;;3.22;100.00;101740.56;4969319;28;20148;-62
2021/01/17 10:58:02;;;;;;;53.83;18.88;;;;;;;3.30;100.00;101741.13;4964869;28;20144;-62
2021/01/17 11:00:28;;;;;;;50.88;16.58;;;;;;;3.40;100.00;101736.25;5029860;28;20056;-61
2021/01/17 11:03:01;;;;;;;42.03;15.32;;;;;;;3.47;100.00;101732.38;5044578;28;20048;-62
2021/01/17 11:05:28;;;;;;;32.55;10.52;;;;;;;3.58;100.00;101737.22;5048652;28;20048;-61
2021/01/17 11:07:55;;;;;;;38.55;9.60;;;;;;;3.63;100.00;101734.34;5048454;28;20432;-62
2021/01/17 11:10:22;;;;;;;23.73;8.32;;;;;;;3.74;100.00;101731.19;5049844;28;20052;-62
2021/01/17 11:12:49;;;;;;;34.58;8.88;;;;;;;3.80;100.00;101739.78;5052530;28;20044;-62
2021/01/17 11:15:20;;;;;;;31.83;8.20;;;;;;;3.89;100.00;101748.25;5062522;22;20136;31
2021/01/17 11:17:52;;;;;;;31.15;7.80;;;;;;;4.12;100.00;101741.84;4884175;28;20670;-62
2021/01/17 11:20:23;;;;;;;27.90;7.60;;;;;;;4.12;100.00;101742.75;4880843;28;20671;-62
2021/01/17 11:22:51;;;;;;;34.30;7.85;;;;;;;4.18;100.00;101742.44;4885595;28;21779;-62
2021/01/17 11:25:19;;;;;;;28.33;6.22;;;;;;;4.24;100.00;101745.75;4877545;28;20050;-62